createdAt,value
2022-12-04T00:01:22.004Z,11.30
2022-12-04T00:03:53.266Z,11.47
2022-12-04T00:06:22.330Z,10.00
2022-12-04T00:08:50.677Z,12.17
2022-12-04T00:11:24.056Z,14.03
2022-12-04T00:13:51.511Z,12.47
2022-12-04T00:16:22.750Z,11.80
2022-12-04T00:18:50.854Z,10.20
2022-12-04T00:21:19.670Z,11.30
2022-12-04T00:23:47.775Z,10.67
2022-12-04T00:26:24.539Z,11.93
2022-12-04T00:28:52.694Z,12.00
2022-12-04T00:31:22.503Z,9.47
2022-12-04T00:33:49.813Z,10.60
2022-12-04T00:36:20.797Z,11.40
2022-12-04T00:38:48.610Z,10.47
2022-12-04T00:41:18.880Z,11.90
2022-12-04T00:43:46.234Z,9.67
2022-12-04T00:46:14.970Z,10.37
2022-12-04T00:48:43.414Z,10.73
2022-12-04T00:51:13.180Z,9.37
2022-12-04T00:53:40.781Z,9.97
2022-12-04T00:56:11.619Z,11.10
2022-12-04T00:58:39.631Z,10.27
2022-12-04T01:01:12.538Z,9.97
2022-12-04T01:03:42.577Z,9.67
2022-12-04T01:06:19.803Z,11.20
2022-12-04T01:08:47.238Z,9.63
2022-12-04T01:11:14.949Z,10.60
2022-12-04T01:13:43.693Z,9.03
2022-12-04T01:16:17.764Z,9.60
2022-12-04T01:18:44.874Z,9.50
2022-12-04T01:21:12.374Z,11.30
2022-12-04T01:23:39.529Z,12.70
2022-12-04T01:26:06.864Z,8.13
2022-12-04T01:28:34.062Z,10.63
2022-12-04T01:31:13.423Z,11.43
2022-12-04T01:33:42.001Z,8.80
2022-12-04T01:36:12.482Z,9.03
2022-12-04T01:38:40.387Z,9.67
2022-12-04T01:41:09.118Z,10.70
2022-12-04T01:43:38.521Z,10.23
2022-12-04T01:46:07.797Z,8.97
2022-12-04T01:48:56.970Z,9.80
2022-12-04T01:51:50.320Z,8.90
2022-12-04T01:54:29.032Z,9.33
2022-12-04T01:57:12.363Z,10.90
2022-12-04T01:59:45.700Z,9.00
2022-12-04T02:02:16.619Z,11.17
2022-12-04T02:04:44.229Z,9.60
2022-12-04T02:07:12.487Z,9.67
2022-12-04T02:09:41.592Z,8.70
2022-12-04T02:12:23.999Z,10.83
2022-12-04T02:15:23.989Z,8.77
2022-12-04T02:18:04.142Z,9.07
2022-12-04T02:20:39.318Z,9.30
2022-12-04T02:23:31.098Z,9.83
2022-12-04T02:26:01.965Z,10.90
2022-12-04T02:28:40.078Z,8.80
2022-12-04T02:31:12.250Z,8.17
2022-12-04T02:34:00.291Z,11.17
2022-12-04T02:36:32.846Z,7.50
2022-12-04T02:39:02.757Z,8.57
2022-12-04T02:41:38.380Z,9.80
2022-12-04T02:44:17.929Z,8.47
2022-12-04T02:46:49.002Z,8.87
2022-12-04T02:49:22.191Z,11.30
2022-12-04T02:51:52.082Z,11.23
2022-12-04T02:54:37.450Z,9.40
2022-12-04T02:57:08.486Z,10.73
2022-12-04T02:59:42.856Z,9.00
2022-12-04T03:02:16.008Z,8.90
2022-12-04T03:04:46.060Z,9.93
2022-12-04T03:07:21.096Z,12.33
2022-12-04T03:10:03.347Z,10.47
2022-12-04T03:12:43.549Z,9.37
2022-12-04T03:15:52.063Z,10.23
2022-12-04T03:18:27.210Z,8.33
2022-12-04T03:21:05.177Z,7.90
2022-12-04T03:23:49.122Z,10.03
2022-12-04T03:26:27.548Z,8.90
2022-12-04T03:29:05.142Z,10.97
2022-12-04T03:31:50.193Z,10.53
2022-12-04T03:34:47.580Z,8.93
2022-12-04T03:37:19.068Z,8.27
2022-12-04T03:39:52.720Z,9.77
2022-12-04T03:42:33.810Z,9.40
2022-12-04T03:45:15.829Z,11.33
2022-12-04T03:48:06.559Z,10.33
2022-12-04T03:50:40.073Z,11.03
2022-12-04T03:53:21.078Z,11.93
2022-12-04T03:56:26.340Z,9.03
2022-12-04T03:58:59.346Z,8.33
2022-12-04T04:01:35.867Z,13.57
2022-12-04T04:04:07.690Z,11.07
2022-12-04T04:06:41.289Z,12.07
2022-12-04T04:09:19.507Z,10.70
2022-12-04T04:11:53.608Z,8.90
2022-12-04T04:14:54.393Z,9.87
2022-12-04T04:17:46.169Z,10.07
2022-12-04T04:20:37.448Z,9.53
2022-12-04T04:23:26.197Z,10.80
2022-12-04T04:25:54.219Z,11.30
2022-12-04T04:28:42.412Z,12.13
2022-12-04T04:31:26.617Z,10.07
2022-12-04T04:34:05.722Z,11.40
2022-12-04T04:36:49.288Z,9.93
2022-12-04T04:39:26.112Z,9.70
2022-12-04T04:41:59.700Z,11.53
2022-12-04T04:44:52.143Z,9.87
2022-12-04T04:47:27.377Z,6.70
2022-12-04T04:49:57.495Z,10.83
2022-12-04T04:52:25.628Z,12.47
2022-12-04T04:54:53.100Z,10.23
2022-12-04T04:57:34.297Z,9.97
2022-12-04T05:00:02.100Z,10.33
2022-12-04T05:02:29.282Z,9.83
2022-12-04T05:04:56.420Z,9.47
2022-12-04T05:07:23.496Z,12.33
2022-12-04T05:09:50.752Z,10.13
2022-12-04T05:12:17.870Z,11.57
2022-12-04T05:14:46.635Z,9.80
2022-12-04T05:17:13.700Z,9.10
2022-12-04T05:19:57.204Z,11.67
2022-12-04T05:22:32.028Z,10.13
2022-12-04T05:24:59.555Z,9.17
2022-12-04T05:27:27.679Z,11.23
2022-12-04T05:29:56.384Z,12.87
2022-12-04T05:32:25.084Z,10.90
2022-12-04T05:34:54.127Z,12.50
2022-12-04T05:37:21.812Z,12.63
2022-12-04T05:39:49.429Z,11.70
2022-12-04T05:42:16.550Z,12.73
2022-12-04T05:44:43.628Z,11.93
2022-12-04T05:47:10.825Z,13.07
2022-12-04T05:49:37.989Z,12.23
2022-12-04T05:52:05.987Z,10.67
2022-12-04T05:54:33.379Z,13.87
2022-12-04T05:57:00.570Z,11.03
2022-12-04T05:59:27.737Z,9.20
2022-12-04T06:01:54.883Z,12.97
2022-12-04T06:04:22.398Z,10.23
2022-12-04T06:06:49.538Z,11.00
2022-12-04T06:09:16.709Z,9.70
2022-12-04T06:11:44.731Z,9.23
2022-12-04T06:14:14.957Z,11.40
2022-12-04T06:16:45.570Z,10.03
2022-12-04T06:19:18.429Z,11.87
2022-12-04T06:21:47.437Z,11.13
2022-12-04T06:24:17.760Z,10.77
2022-12-04T06:27:25.708Z,11.63
2022-12-04T06:29:37.379Z,9.93
2022-12-04T06:32:04.899Z,10.30
2022-12-04T06:34:32.651Z,9.53
2022-12-04T06:36:59.821Z,12.97
2022-12-04T06:39:27.301Z,9.07
2022-12-04T06:41:54.281Z,12.27
2022-12-04T06:44:21.787Z,10.07
2022-12-04T06:46:50.115Z,10.17
2022-12-04T06:49:17.610Z,11.30
2022-12-04T06:51:44.630Z,8.83
2022-12-04T06:54:12.297Z,8.03
2022-12-04T06:56:39.595Z,10.70
2022-12-04T06:59:06.697Z,9.43
2022-12-04T07:01:35.164Z,9.00
2022-12-04T07:04:04.550Z,11.03
2022-12-04T07:06:34.473Z,11.03
2022-12-04T07:09:07.250Z,9.27
2022-12-04T07:11:35.175Z,8.70
2022-12-04T07:14:02.631Z,7.60
2022-12-04T07:16:31.807Z,10.03
2022-12-04T07:19:02.680Z,8.73
2022-12-04T07:21:31.870Z,9.13
2022-12-04T07:24:01.416Z,9.23
2022-12-04T07:26:30.725Z,8.00
2022-12-04T07:28:59.231Z,8.90
2022-12-04T07:31:29.168Z,6.77
2022-12-04T07:33:57.327Z,8.73
2022-12-04T07:36:26.034Z,8.70
2022-12-04T07:38:55.194Z,8.83
2022-12-04T07:41:22.706Z,7.67
2022-12-04T07:43:49.847Z,7.33
2022-12-04T07:46:27.845Z,8.40
2022-12-04T07:48:57.519Z,8.10
2022-12-04T07:51:27.370Z,8.50
2022-12-04T07:54:02.039Z,7.37
2022-12-04T07:56:30.929Z,10.30
2022-12-04T07:58:58.018Z,6.53
2022-12-04T08:01:25.261Z,7.70
2022-12-04T08:03:54.988Z,6.53
2022-12-04T08:06:23.783Z,7.90
2022-12-04T08:08:51.289Z,7.37
2022-12-04T08:11:24.788Z,8.50
2022-12-04T08:14:00.826Z,6.93
2022-12-04T08:16:30.413Z,7.50
2022-12-04T08:18:58.599Z,6.43
2022-12-04T08:21:29.130Z,8.33
2022-12-04T08:23:58.338Z,7.60
2022-12-04T08:26:27.759Z,8.20
2022-12-04T08:28:56.568Z,6.17
2022-12-04T08:31:26.910Z,7.60
2022-12-04T08:33:57.360Z,6.57
2022-12-04T08:36:25.173Z,9.67
2022-12-04T08:38:56.213Z,6.80
2022-12-04T08:41:24.851Z,7.03
2022-12-04T08:43:54.925Z,8.17
2022-12-04T08:46:23.014Z,9.10
2022-12-04T08:48:50.135Z,6.70
2022-12-04T08:51:37.650Z,7.37
2022-12-04T08:54:07.465Z,8.17
2022-12-04T08:56:37.585Z,7.20
2022-12-04T08:59:05.097Z,7.57
2022-12-04T09:01:32.583Z,6.03
2022-12-04T09:04:01.526Z,7.40
2022-12-04T09:06:28.842Z,7.47
2022-12-04T09:08:57.193Z,7.80
2022-12-04T09:11:27.368Z,6.97
2022-12-04T09:13:56.105Z,8.27
2022-12-04T09:16:25.255Z,9.37
2022-12-04T09:18:52.873Z,7.97
2022-12-04T09:21:22.287Z,10.50
2022-12-04T09:23:49.679Z,7.47
2022-12-04T09:26:21.966Z,9.23
2022-12-04T09:28:49.785Z,9.90
2022-12-04T09:31:17.648Z,9.33
2022-12-04T09:33:45.417Z,10.10
2022-12-04T09:36:21.723Z,8.50
2022-12-04T09:38:51.078Z,9.77
2022-12-04T09:41:30.622Z,9.33
2022-12-04T09:44:06.560Z,9.43
2022-12-04T09:46:53.427Z,9.20
2022-12-04T09:49:40.303Z,8.10
2022-12-04T09:52:30.628Z,9.57
2022-12-04T09:55:00.920Z,7.90
2022-12-04T09:57:33.967Z,11.03
2022-12-04T10:00:01.708Z,9.07
2022-12-04T10:02:40.792Z,6.43
2022-12-04T10:05:20.232Z,9.70
2022-12-04T10:08:07.455Z,7.47
2022-12-04T10:10:47.255Z,7.97
2022-12-04T10:13:41.362Z,7.73
2022-12-04T10:16:32.577Z,8.20
2022-12-04T10:19:33.299Z,6.87
2022-12-04T10:22:24.445Z,7.23
2022-12-04T10:25:09.038Z,8.17
2022-12-04T10:28:00.300Z,8.50
2022-12-04T10:30:31.062Z,5.60
2022-12-04T10:33:14.691Z,7.87
2022-12-04T10:35:44.858Z,7.20
2022-12-04T10:38:23.991Z,10.17
2022-12-04T10:40:58.004Z,7.60
2022-12-04T10:43:43.300Z,6.23
2022-12-04T10:46:24.796Z,8.83
2022-12-04T10:49:37.040Z,9.40
2022-12-04T10:52:06.694Z,6.23
2022-12-04T10:54:48.113Z,8.97
2022-12-04T10:57:16.100Z,9.73
2022-12-04T10:59:57.269Z,7.33
2022-12-04T11:02:34.781Z,7.07
2022-12-04T11:05:07.438Z,8.23
2022-12-04T11:07:46.036Z,8.17
2022-12-04T11:10:33.495Z,7.07
2022-12-04T11:13:11.648Z,6.80
2022-12-04T11:15:47.679Z,8.37
2022-12-04T11:18:46.374Z,7.10
2022-12-04T11:21:23.066Z,6.30
2022-12-04T11:23:52.258Z,6.23
2022-12-04T11:26:38.488Z,8.80
2022-12-04T11:29:07.773Z,8.60
2022-12-04T11:31:35.164Z,9.90
2022-12-04T11:34:15.695Z,7.13
2022-12-04T11:36:43.370Z,8.57
2022-12-04T11:39:15.673Z,8.40
2022-12-04T11:41:43.111Z,7.63
2022-12-04T11:44:28.312Z,6.03
2022-12-04T11:46:57.428Z,6.73
2022-12-04T11:49:26.530Z,7.70
2022-12-04T11:51:53.882Z,7.43
2022-12-04T11:54:41.329Z,10.23
2022-12-04T11:57:18.756Z,8.43
2022-12-04T12:00:04.969Z,7.87
2022-12-04T12:02:58.344Z,5.97
2022-12-04T12:06:00.180Z,3.93
2022-12-04T12:09:03.738Z,6.27
2022-12-04T12:11:41.247Z,7.83
2022-12-04T12:14:49.493Z,6.80
2022-12-04T12:17:25.804Z,5.73
2022-12-04T12:20:06.826Z,5.77
2022-12-04T12:22:37.267Z,6.17
2022-12-04T12:25:12.569Z,6.60
2022-12-04T12:27:57.600Z,6.73
2022-12-04T12:30:29.341Z,5.93
2022-12-04T12:33:23.644Z,5.60
2022-12-04T12:35:53.908Z,5.80
2022-12-04T12:38:35.444Z,7.07
2022-12-04T12:41:08.863Z,5.70
2022-12-04T12:43:38.985Z,5.37
2022-12-04T12:46:27.892Z,5.37
2022-12-04T12:49:20.597Z,6.90
2022-12-04T12:51:51.821Z,7.87
2022-12-04T12:55:16.082Z,4.83
2022-12-04T12:57:47.998Z,4.47
2022-12-04T13:00:15.616Z,5.40
2022-12-04T13:03:08.157Z,5.67
2022-12-04T13:05:41.058Z,5.00
2022-12-04T13:08:22.871Z,4.60
2022-12-04T13:11:03.395Z,7.03
2022-12-04T13:13:36.305Z,4.67
2022-12-04T13:16:15.899Z,5.37
2022-12-04T13:18:54.994Z,6.13
2022-12-04T13:21:39.859Z,6.97
2022-12-04T13:24:25.792Z,4.10
2022-12-04T13:27:03.877Z,4.97
2022-12-04T13:29:44.875Z,5.27
2022-12-04T13:32:49.193Z,5.73
2022-12-04T13:35:40.552Z,5.03
2022-12-04T13:38:13.741Z,4.87
2022-12-04T13:40:48.313Z,6.67
2022-12-04T13:43:17.498Z,5.10
2022-12-04T13:45:46.913Z,6.30
2022-12-04T13:48:14.148Z,4.97
2022-12-04T13:50:41.843Z,5.27
2022-12-04T13:53:32.843Z,7.87
2022-12-04T13:56:03.165Z,7.97
2022-12-04T13:58:35.899Z,6.73
2022-12-04T14:01:25.193Z,4.57
2022-12-04T14:03:59.072Z,6.70
2022-12-04T14:06:37.326Z,6.43
2022-12-04T14:09:21.476Z,5.73
2022-12-04T14:11:53.733Z,4.73
2022-12-04T14:14:28.999Z,5.83
2022-12-04T14:16:59.636Z,4.80
2022-12-04T14:19:29.767Z,4.97
2022-12-04T14:21:57.388Z,5.33
2022-12-04T14:24:39.343Z,5.70
2022-12-04T14:27:43.897Z,3.77
2022-12-04T14:30:30.821Z,5.73
2022-12-04T14:33:23.022Z,6.37
2022-12-04T14:35:58.601Z,5.77
2022-12-04T14:38:26.815Z,6.80
2022-12-04T14:40:58.253Z,5.57
2022-12-04T14:43:30.467Z,3.80
2022-12-04T14:46:14.312Z,5.83
2022-12-04T14:48:51.596Z,5.30
2022-12-04T14:51:30.602Z,6.53
2022-12-04T14:54:09.961Z,5.80
2022-12-04T14:56:55.476Z,5.50
2022-12-04T14:59:25.390Z,4.80
2022-12-04T15:01:55.349Z,4.73
2022-12-04T15:04:33.067Z,4.93
2022-12-04T15:07:00.951Z,5.47
2022-12-04T15:09:47.598Z,5.23
2022-12-04T15:12:33.942Z,4.30
2022-12-04T15:15:25.953Z,5.27
2022-12-04T15:18:12.979Z,4.23
2022-12-04T15:20:49.098Z,3.67
2022-12-04T15:23:21.228Z,4.97
2022-12-04T15:25:56.835Z,6.53
2022-12-04T15:28:29.528Z,4.37
2022-12-04T15:30:59.267Z,3.50
2022-12-04T15:33:34.650Z,4.90
2022-12-04T15:36:14.502Z,4.00
2022-12-04T15:38:42.099Z,4.57
2022-12-04T15:41:31.951Z,4.60
2022-12-04T15:43:59.901Z,3.97
2022-12-04T15:46:33.054Z,4.73
2022-12-04T15:49:09.328Z,3.47
2022-12-04T15:51:36.570Z,3.53
2022-12-04T15:54:04.191Z,3.77
2022-12-04T15:56:31.998Z,3.47
2022-12-04T15:59:02.309Z,4.93
2022-12-04T16:01:39.898Z,3.20
2022-12-04T16:04:22.350Z,3.33
2022-12-04T16:06:53.860Z,3.20
2022-12-04T16:09:24.941Z,4.27
2022-12-04T16:12:16.423Z,4.47
2022-12-04T16:14:43.686Z,3.83
2022-12-04T16:17:13.759Z,4.43
2022-12-04T16:19:42.563Z,4.17
2022-12-04T16:22:23.687Z,5.73
2022-12-04T16:24:51.501Z,4.03
2022-12-04T16:27:22.771Z,4.20
2022-12-04T16:29:51.058Z,3.87
2022-12-04T16:32:22.281Z,4.33
2022-12-04T16:34:50.210Z,4.60
2022-12-04T16:37:20.247Z,3.27
2022-12-04T16:39:48.116Z,4.80
2022-12-04T16:42:27.103Z,4.27
2022-12-04T16:44:54.623Z,7.60
2022-12-04T16:47:22.701Z,3.97
2022-12-04T16:49:51.877Z,5.93
2022-12-04T16:52:19.758Z,5.87
2022-12-04T16:54:47.909Z,5.27
2022-12-04T16:57:15.194Z,5.03
2022-12-04T16:59:42.830Z,4.13
2022-12-04T17:02:20.489Z,3.97
2022-12-04T17:04:50.354Z,4.43
2022-12-04T17:07:20.759Z,4.93
2022-12-04T17:09:48.166Z,4.90
2022-12-04T17:12:15.503Z,4.87
2022-12-04T17:14:42.838Z,4.17
2022-12-04T17:17:10.108Z,4.00
2022-12-04T17:19:37.317Z,4.77
2022-12-04T17:22:04.521Z,4.70
2022-12-04T17:24:32.207Z,5.47
2022-12-04T17:27:01.407Z,6.07
2022-12-04T17:29:28.651Z,5.13
2022-12-04T17:31:55.994Z,5.60
2022-12-04T17:34:23.262Z,4.87
2022-12-04T17:36:50.388Z,5.37
2022-12-04T17:39:20.474Z,4.50
2022-12-04T17:41:47.798Z,3.87
2022-12-04T17:44:15.021Z,4.37
2022-12-04T17:46:42.728Z,6.50
2022-12-04T17:49:10.200Z,5.80
2022-12-04T17:51:38.019Z,5.30
2022-12-04T17:54:06.550Z,7.90
2022-12-04T17:56:34.829Z,5.53
2022-12-04T17:59:02.039Z,7.10
2022-12-04T18:01:30.126Z,5.67
2022-12-04T18:04:00.153Z,7.47
2022-12-04T18:06:30.177Z,6.70
2022-12-04T18:08:57.801Z,5.97
2022-12-04T18:11:32.108Z,6.20
2022-12-04T18:14:04.852Z,5.57
2022-12-04T18:16:36.650Z,6.23
2022-12-04T18:19:04.319Z,6.60
2022-12-04T18:21:33.479Z,6.20
2022-12-04T18:24:04.951Z,5.83
2022-12-04T18:26:38.561Z,5.73
2022-12-04T18:29:07.513Z,5.83
2022-12-04T18:31:36.040Z,5.30
2022-12-04T18:34:06.149Z,7.33
2022-12-04T18:36:34.526Z,6.90
2022-12-04T18:39:05.923Z,5.53
2022-12-04T18:41:33.735Z,6.33
2022-12-04T18:44:02.552Z,6.10
2022-12-04T18:46:30.531Z,7.47
2022-12-04T18:49:01.369Z,7.10
2022-12-04T18:51:38.111Z,4.70
2022-12-04T18:54:14.427Z,4.33
2022-12-04T18:56:41.676Z,5.27
2022-12-04T18:59:36.652Z,4.47
2022-12-04T19:02:03.920Z,6.40
2022-12-04T19:04:32.863Z,6.63
2022-12-04T19:07:00.116Z,6.90
2022-12-04T19:10:08.823Z,6.63
2022-12-04T19:12:16.646Z,6.20
2022-12-04T19:14:47.027Z,4.87
2022-12-04T19:17:15.669Z,5.70
2022-12-04T19:19:42.857Z,4.77
2022-12-04T19:22:13.448Z,4.63
2022-12-04T19:24:41.196Z,4.67
2022-12-04T19:27:12.168Z,4.03
2022-12-04T19:29:40.506Z,5.13
2022-12-04T19:32:08.398Z,5.53
2022-12-04T19:34:36.123Z,5.23
2022-12-04T19:37:03.382Z,5.93
2022-12-04T19:39:33.790Z,6.77
2022-12-04T19:42:01.256Z,4.50
2022-12-04T19:47:16.036Z,5.37
2022-12-04T19:49:43.325Z,4.50
2022-12-04T19:52:10.506Z,4.87
2022-12-04T19:54:38.111Z,4.93
2022-12-04T19:57:05.383Z,4.90
2022-12-04T19:59:36.950Z,4.57
2022-12-04T20:02:06.690Z,5.80
2022-12-04T20:04:34.685Z,5.07
2022-12-04T20:07:01.893Z,5.30
2022-12-04T20:09:29.323Z,5.77
2022-12-04T20:11:57.527Z,5.03
2022-12-04T20:14:24.944Z,4.70
2022-12-04T20:16:53.424Z,5.97
2022-12-04T20:19:20.987Z,3.93
2022-12-04T20:21:48.317Z,5.97
2022-12-04T20:24:17.309Z,4.93
2022-12-04T20:26:46.059Z,5.17
2022-12-04T20:29:16.270Z,4.83
2022-12-04T20:31:45.381Z,6.20
2022-12-04T20:34:16.813Z,4.53
2022-12-04T20:36:47.299Z,4.60
2022-12-04T20:39:15.954Z,4.60
2022-12-04T20:41:43.643Z,6.13
2022-12-04T20:44:15.288Z,5.33
2022-12-04T20:46:43.147Z,5.13
2022-12-04T20:49:20.671Z,4.87
2022-12-04T20:51:48.874Z,5.50
2022-12-04T20:54:20.407Z,7.30
2022-12-04T20:56:49.301Z,9.70
2022-12-04T20:59:19.695Z,6.17
2022-12-04T21:01:47.643Z,4.43
2022-12-04T21:04:17.639Z,4.63
2022-12-04T21:06:45.304Z,5.43
2022-12-04T21:09:15.702Z,4.50
2022-12-04T21:11:46.991Z,4.27
2022-12-04T21:14:44.862Z,4.33
2022-12-04T21:17:18.973Z,5.77
2022-12-04T21:19:48.428Z,4.03
2022-12-04T21:22:17.319Z,3.53
2022-12-04T21:24:44.898Z,6.30
2022-12-04T21:27:18.924Z,5.37
2022-12-04T21:29:51.307Z,3.97
2022-12-04T21:32:19.858Z,5.50
2022-12-04T21:34:47.205Z,4.40
2022-12-04T21:37:14.613Z,4.83
2022-12-04T21:39:43.679Z,6.40
2022-12-04T21:42:29.437Z,5.60
2022-12-04T21:44:58.148Z,5.37
2022-12-04T21:47:25.549Z,5.63
2022-12-04T21:49:52.717Z,6.43
2022-12-04T21:52:21.287Z,5.77
2022-12-04T21:54:50.335Z,6.93
2022-12-04T21:57:18.276Z,5.53
2022-12-04T21:59:45.558Z,6.03
2022-12-04T22:02:14.065Z,6.30
2022-12-04T22:04:42.701Z,7.07
2022-12-04T22:07:10.175Z,6.30
2022-12-04T22:09:38.653Z,5.50
2022-12-04T22:12:20.226Z,7.63
2022-12-04T22:14:53.378Z,6.87
2022-12-04T22:17:20.660Z,9.40
2022-12-04T22:19:47.912Z,8.40
2022-12-04T22:22:15.103Z,7.43
2022-12-04T22:24:42.669Z,8.27
2022-12-04T22:27:15.078Z,7.77
2022-12-04T22:29:50.241Z,7.90
2022-12-04T22:32:19.052Z,7.17
2022-12-04T22:34:49.194Z,7.10
2022-12-04T22:37:16.577Z,7.57
2022-12-04T22:39:44.279Z,7.77
2022-12-04T22:42:11.500Z,8.43
2022-12-04T22:44:38.738Z,8.03
2022-12-04T22:47:05.949Z,6.00
2022-12-04T22:49:33.199Z,5.50
2022-12-04T22:52:00.959Z,6.00
2022-12-04T22:54:28.595Z,6.33
2022-12-04T22:56:55.969Z,8.97
2022-12-04T22:59:23.117Z,5.33
2022-12-04T23:01:50.328Z,5.73
2022-12-04T23:04:20.456Z,4.87
2022-12-04T23:06:47.690Z,5.07
2022-12-04T23:09:17.842Z,5.93
2022-12-04T23:11:46.190Z,7.73
2022-12-04T23:14:15.624Z,6.03
2022-12-04T23:16:43.385Z,6.47
2022-12-04T23:19:16.302Z,6.63
2022-12-04T23:21:44.042Z,6.07
2022-12-04T23:24:12.538Z,6.43
2022-12-04T23:26:43.061Z,5.67
2022-12-04T23:29:29.548Z,6.67
2022-12-04T23:31:57.774Z,5.57
2022-12-04T23:34:24.945Z,5.70
2022-12-04T23:36:54.616Z,4.60
2022-12-04T23:39:21.919Z,5.87
2022-12-04T23:41:49.015Z,4.53
2022-12-04T23:44:16.065Z,5.27
2022-12-04T23:46:43.181Z,4.03
2022-12-04T23:49:10.679Z,6.10
2022-12-04T23:51:37.756Z,5.97
2022-12-04T23:54:04.964Z,6.00
2022-12-04T23:56:32.832Z,5.67
2022-12-04T23:59:00.156Z,6.83
